createdAt,value
2022-12-15T00:02:40.688Z,9.63
2022-12-15T00:05:26.746Z,9.40
2022-12-15T00:08:12.651Z,9.53
2022-12-15T00:10:58.707Z,9.77
2022-12-15T00:13:44.761Z,10.23
2022-12-15T00:16:30.748Z,11.73
2022-12-15T00:19:18.327Z,11.27
2022-12-15T00:22:04.431Z,10.77
2022-12-15T00:24:50.553Z,9.97
2022-12-15T00:27:36.323Z,10.00
2022-12-15T00:30:22.062Z,9.80
2022-12-15T00:33:08.085Z,9.97
2022-12-15T00:35:55.991Z,10.60
2022-12-15T00:38:41.919Z,11.30
2022-12-15T00:41:10.433Z,10.80
2022-12-15T00:43:38.933Z,10.50
2022-12-15T00:46:25.379Z,8.20
2022-12-15T00:48:53.924Z,8.47
2022-12-15T00:51:22.732Z,7.97
2022-12-15T00:54:13.209Z,7.87
2022-12-15T00:57:02.505Z,8.33
2022-12-15T00:59:48.355Z,8.03
2022-12-15T01:02:34.403Z,8.40
2022-12-15T01:05:20.289Z,8.03
2022-12-15T01:08:07.382Z,7.90
2022-12-15T01:10:53.384Z,6.93
2022-12-15T01:13:39.140Z,7.33
2022-12-15T01:16:30.224Z,7.97
2022-12-15T01:19:16.757Z,7.83
2022-12-15T01:21:45.190Z,6.70
2022-12-15T01:24:14.942Z,7.63
2022-12-15T01:26:43.390Z,6.70
2022-12-15T01:29:11.750Z,7.63
2022-12-15T01:31:40.209Z,6.37
2022-12-15T01:34:08.617Z,6.67
2022-12-15T01:36:36.988Z,6.97
2022-12-15T01:39:05.458Z,6.97
2022-12-15T01:41:34.293Z,6.67
2022-12-15T01:44:16.142Z,6.53
2022-12-15T01:46:44.774Z,6.60
2022-12-15T01:49:16.300Z,6.53
2022-12-15T01:51:46.027Z,6.27
2022-12-15T01:54:16.922Z,6.37
2022-12-15T01:56:48.289Z,6.43
2022-12-15T01:59:19.567Z,6.83
2022-12-15T02:01:50.263Z,7.30
2022-12-15T02:04:19.846Z,6.23
2022-12-15T02:06:48.241Z,6.10
2022-12-15T02:09:17.140Z,6.20
2022-12-15T02:11:53.035Z,6.30
2022-12-15T02:14:24.427Z,6.27
2022-12-15T02:17:07.680Z,5.93
2022-12-15T02:19:49.913Z,5.37
2022-12-15T02:22:26.267Z,5.73
2022-12-15T02:25:07.728Z,6.77
2022-12-15T02:27:50.356Z,5.37
2022-12-15T02:30:30.785Z,6.60
2022-12-15T02:33:03.061Z,7.23
2022-12-15T02:35:47.227Z,7.80
2022-12-15T02:38:15.642Z,6.37
2022-12-15T02:40:44.175Z,6.47
2022-12-15T02:43:12.940Z,6.07
2022-12-15T02:45:48.324Z,6.53
2022-12-15T02:48:23.793Z,5.93
2022-12-15T02:51:02.553Z,6.23
2022-12-15T02:53:44.560Z,6.27
2022-12-15T02:56:17.785Z,7.43
2022-12-15T02:58:49.728Z,6.93
2022-12-15T03:01:22.181Z,7.97
2022-12-15T03:03:52.785Z,8.90
2022-12-15T03:06:21.679Z,8.53
2022-12-15T03:08:50.227Z,9.40
2022-12-15T03:11:18.626Z,9.17
2022-12-15T03:13:47.069Z,10.40
2022-12-15T03:16:19.746Z,9.87
2022-12-15T03:18:48.224Z,8.93
2022-12-15T03:21:16.782Z,10.40
2022-12-15T03:23:45.228Z,11.77
2022-12-15T03:26:13.719Z,11.43
2022-12-15T03:28:42.714Z,12.00
2022-12-15T03:31:11.103Z,12.60
2022-12-15T03:33:41.003Z,12.93
2022-12-15T03:36:09.951Z,13.50
2022-12-15T03:38:38.353Z,12.37
2022-12-15T03:41:06.816Z,11.47
2022-12-15T03:43:35.271Z,12.27
2022-12-15T03:46:03.715Z,13.53
2022-12-15T03:48:32.369Z,12.73
2022-12-15T03:51:02.151Z,13.43
2022-12-15T03:53:30.875Z,14.93
2022-12-15T03:55:59.734Z,14.00
2022-12-15T03:58:28.089Z,13.87
2022-12-15T04:00:57.129Z,13.57
2022-12-15T04:03:25.656Z,14.63
2022-12-15T04:05:54.046Z,15.50
2022-12-15T04:08:27.737Z,15.77
2022-12-15T04:10:56.164Z,13.57
2022-12-15T04:13:24.552Z,14.57
2022-12-15T04:15:52.957Z,14.60
2022-12-15T04:18:21.441Z,15.23
2022-12-15T04:20:50.407Z,14.80
2022-12-15T04:23:18.985Z,14.80
2022-12-15T04:26:06.478Z,16.00
2022-12-15T04:28:52.417Z,14.70
2022-12-15T04:31:39.732Z,15.13
2022-12-15T04:34:27.743Z,16.70
2022-12-15T04:37:13.650Z,16.40
2022-12-15T04:40:00.202Z,17.27
2022-12-15T04:42:47.910Z,18.43
2022-12-15T04:45:34.860Z,18.30
2022-12-15T04:48:20.966Z,16.93
2022-12-15T04:51:07.211Z,16.63
2022-12-15T04:53:53.062Z,16.13
2022-12-15T04:56:39.297Z,17.20
2022-12-15T04:59:26.835Z,16.43
2022-12-15T05:02:12.848Z,15.73
2022-12-15T05:04:58.908Z,17.90
2022-12-15T05:07:45.291Z,18.50
2022-12-15T05:10:31.664Z,17.50
2022-12-15T05:13:23.586Z,20.47
2022-12-15T05:16:10.978Z,18.47
2022-12-15T05:18:57.022Z,18.10
2022-12-15T05:21:43.000Z,18.47
2022-12-15T05:24:28.813Z,19.30
2022-12-15T05:27:14.655Z,18.83
2022-12-15T05:30:00.652Z,17.67
2022-12-15T05:32:33.154Z,17.97
2022-12-15T05:35:02.647Z,18.63
2022-12-15T05:37:31.009Z,17.87
2022-12-15T05:39:59.391Z,19.60
2022-12-15T05:42:27.841Z,20.13
2022-12-15T05:44:56.264Z,17.53
2022-12-15T05:47:24.615Z,18.53
2022-12-15T05:49:54.404Z,17.13
2022-12-15T05:52:22.789Z,16.37
2022-12-15T05:54:51.582Z,17.27
2022-12-15T05:57:20.022Z,17.97
2022-12-15T05:59:48.564Z,17.73
2022-12-15T06:02:17.051Z,16.97
2022-12-15T06:04:45.546Z,17.20
2022-12-15T06:07:15.401Z,18.07
2022-12-15T06:09:43.803Z,17.20
2022-12-15T06:12:12.224Z,17.80
2022-12-15T06:14:40.691Z,17.87
2022-12-15T06:17:09.116Z,17.77
2022-12-15T06:19:37.515Z,18.20
2022-12-15T06:22:05.929Z,18.03
2022-12-15T06:24:35.680Z,18.70
2022-12-15T06:27:04.065Z,18.17
2022-12-15T06:29:32.501Z,19.20
2022-12-15T06:32:00.917Z,17.13
2022-12-15T06:34:29.396Z,17.67
2022-12-15T06:36:57.796Z,29.30
2022-12-15T06:39:26.178Z,21.17
2022-12-15T06:41:56.012Z,18.97
2022-12-15T06:44:24.430Z,19.23
2022-12-15T06:46:52.883Z,22.03
2022-12-15T06:49:21.655Z,20.43
2022-12-15T06:51:50.918Z,18.97
2022-12-15T06:54:19.269Z,18.57
2022-12-15T06:56:49.801Z,17.77
2022-12-15T06:59:20.065Z,17.80
2022-12-15T07:01:48.606Z,27.60
2022-12-15T07:04:17.233Z,75.67
2022-12-15T07:06:45.748Z,23.10
2022-12-15T07:09:17.243Z,18.17
2022-12-15T07:11:49.260Z,17.50
2022-12-15T07:14:17.810Z,16.10
2022-12-15T07:16:47.616Z,17.50
2022-12-15T07:19:16.141Z,16.07
2022-12-15T07:21:45.114Z,15.57
2022-12-15T07:24:13.952Z,15.23
2022-12-15T07:26:42.669Z,14.10
2022-12-15T07:29:11.953Z,14.03
2022-12-15T07:31:40.620Z,13.10
2022-12-15T07:34:10.438Z,12.73
2022-12-15T07:36:38.832Z,15.00
2022-12-15T07:39:08.363Z,14.07
2022-12-15T07:41:36.797Z,12.17
2022-12-15T07:44:06.237Z,12.70
2022-12-15T07:46:34.709Z,13.33
2022-12-15T07:49:03.141Z,15.47
2022-12-15T07:51:32.942Z,11.97
2022-12-15T07:54:01.334Z,16.50
2022-12-15T07:56:32.214Z,14.17
2022-12-15T07:59:04.310Z,16.93
2022-12-15T08:01:32.949Z,12.80
2022-12-15T08:04:01.481Z,11.37
2022-12-15T08:06:30.079Z,16.53
2022-12-15T08:09:00.278Z,10.43
2022-12-15T08:11:28.675Z,11.30
2022-12-15T08:14:06.868Z,11.07
2022-12-15T08:16:36.798Z,10.77
2022-12-15T08:19:07.057Z,10.17
2022-12-15T08:21:35.762Z,10.70
2022-12-15T08:24:06.177Z,12.10
2022-12-15T08:26:34.580Z,11.20
2022-12-15T08:29:49.069Z,11.70
2022-12-15T08:31:54.060Z,12.00
2022-12-15T08:34:22.948Z,11.67
2022-12-15T08:36:51.415Z,11.13
2022-12-15T08:39:21.512Z,11.77
2022-12-15T08:41:49.889Z,12.20
2022-12-15T08:44:18.361Z,11.10
2022-12-15T08:46:46.773Z,10.97
2022-12-15T08:49:21.130Z,10.93
2022-12-15T08:51:50.635Z,10.23
2022-12-15T08:54:20.317Z,9.73
2022-12-15T08:56:50.175Z,8.93
2022-12-15T08:59:19.474Z,8.60
2022-12-15T09:01:48.249Z,12.13
2022-12-15T09:04:17.111Z,9.10
2022-12-15T09:06:50.354Z,11.73
2022-12-15T09:09:19.913Z,16.27
2022-12-15T09:11:49.760Z,13.07
2022-12-15T09:14:21.595Z,28.60
2022-12-15T09:16:54.145Z,17.13
2022-12-15T09:19:22.604Z,14.17
2022-12-15T09:21:51.038Z,13.60
2022-12-15T09:24:27.453Z,11.77
2022-12-15T09:27:03.125Z,12.47
2022-12-15T09:29:31.593Z,12.47
2022-12-15T09:32:00.808Z,10.43
2022-12-15T09:34:29.232Z,13.27
2022-12-15T09:36:57.962Z,21.23
2022-12-15T09:39:26.428Z,12.00
2022-12-15T09:41:56.160Z,13.33
2022-12-15T09:44:26.776Z,10.30
2022-12-15T09:46:59.932Z,23.63
2022-12-15T09:49:36.888Z,11.07
2022-12-15T09:52:11.004Z,13.40
2022-12-15T09:54:41.900Z,14.70
2022-12-15T09:57:13.771Z,13.73
2022-12-15T09:59:51.991Z,16.67
2022-12-15T10:02:28.122Z,14.77
2022-12-15T10:04:59.680Z,14.20
2022-12-15T10:07:30.942Z,15.43
2022-12-15T10:09:59.424Z,14.97
2022-12-15T10:12:30.926Z,22.20
2022-12-15T10:15:07.804Z,18.23
2022-12-15T10:17:43.010Z,16.73
2022-12-15T10:20:17.909Z,17.10
2022-12-15T10:22:50.506Z,16.17
2022-12-15T10:25:27.557Z,18.67
2022-12-15T10:28:09.752Z,17.37
2022-12-15T10:30:41.907Z,17.30
2022-12-15T10:33:15.407Z,19.47
2022-12-15T10:35:44.232Z,17.53
2022-12-15T10:38:19.990Z,19.13
2022-12-15T10:40:50.178Z,19.97
2022-12-15T10:43:26.406Z,18.60
2022-12-15T10:46:03.652Z,20.63
2022-12-15T10:48:32.302Z,20.97
2022-12-15T10:51:10.383Z,20.40
2022-12-15T10:53:41.836Z,21.93
2022-12-15T10:56:10.322Z,23.60
2022-12-15T10:58:47.724Z,21.13
2022-12-15T11:01:21.152Z,20.93
2022-12-15T11:03:52.985Z,19.10
2022-12-15T11:06:22.744Z,19.70
2022-12-15T11:08:52.246Z,19.97
2022-12-15T11:11:45.532Z,18.27
2022-12-15T11:14:15.387Z,21.73
2022-12-15T11:16:53.503Z,22.33
2022-12-15T11:19:29.988Z,22.10
2022-12-15T11:22:01.161Z,19.33
2022-12-15T11:24:33.809Z,18.43
2022-12-15T11:27:07.628Z,19.43
2022-12-15T11:29:42.267Z,20.43
2022-12-15T11:32:13.433Z,22.57
2022-12-15T11:34:44.384Z,20.03
2022-12-15T11:37:36.389Z,19.73
2022-12-15T11:40:15.378Z,22.07
2022-12-15T11:42:47.783Z,20.80
2022-12-15T11:45:20.460Z,19.70
2022-12-15T11:47:51.799Z,19.03
2022-12-15T11:50:27.229Z,21.23
2022-12-15T11:53:02.742Z,17.73
2022-12-15T11:55:41.296Z,16.77
2022-12-15T11:58:24.660Z,19.03
2022-12-15T12:00:57.459Z,20.17
2022-12-15T12:03:31.147Z,20.00
2022-12-15T12:06:03.663Z,22.03
2022-12-15T12:08:38.795Z,21.97
2022-12-15T12:11:12.242Z,21.67
2022-12-15T12:13:46.621Z,23.07
2022-12-15T12:16:27.359Z,23.23
2022-12-15T12:19:01.113Z,23.23
2022-12-15T12:21:32.530Z,22.07
2022-12-15T12:24:03.654Z,21.33
2022-12-15T12:26:34.485Z,22.00
2022-12-15T12:29:06.167Z,22.60
2022-12-15T12:31:39.113Z,23.20
2022-12-15T12:34:13.532Z,23.07
2022-12-15T12:36:42.477Z,23.03
2022-12-15T12:39:18.206Z,23.80
2022-12-15T12:41:48.533Z,33.97
2022-12-15T12:44:22.770Z,23.53
2022-12-15T12:46:53.070Z,24.30
2022-12-15T12:49:27.006Z,22.83
2022-12-15T12:51:56.889Z,23.30
2022-12-15T12:54:46.183Z,23.20
2022-12-15T12:57:34.840Z,25.40
2022-12-15T13:00:04.093Z,23.30
2022-12-15T13:02:43.279Z,36.20
2022-12-15T13:05:25.877Z,24.07
2022-12-15T13:07:55.949Z,24.57
2022-12-15T13:10:25.304Z,23.90
2022-12-15T13:12:54.528Z,24.37
2022-12-15T13:15:33.077Z,24.07
2022-12-15T13:18:03.167Z,23.70
2022-12-15T13:20:34.080Z,23.53
2022-12-15T13:23:20.991Z,24.27
2022-12-15T13:26:03.472Z,23.07
2022-12-15T13:28:42.718Z,22.97
2022-12-15T13:31:34.278Z,21.73
2022-12-15T13:34:14.355Z,23.57
2022-12-15T13:36:54.463Z,23.40
2022-12-15T13:39:47.378Z,24.23
2022-12-15T13:42:38.422Z,23.10
2022-12-15T13:45:40.762Z,23.67
2022-12-15T13:48:17.591Z,24.17
2022-12-15T13:50:51.327Z,24.30
2022-12-15T13:53:22.965Z,25.47
2022-12-15T13:56:05.877Z,23.63
2022-12-15T13:58:40.391Z,24.63
2022-12-15T14:01:20.427Z,30.37
2022-12-15T14:04:01.923Z,28.07
2022-12-15T14:06:33.242Z,28.53
2022-12-15T14:09:03.208Z,29.30
2022-12-15T14:12:02.032Z,27.20
2022-12-15T14:14:24.405Z,25.83
2022-12-15T14:16:58.372Z,23.73
2022-12-15T14:19:26.940Z,25.03
2022-12-15T14:21:56.269Z,31.73
2022-12-15T14:24:39.637Z,31.93
2022-12-15T14:27:08.796Z,30.90
2022-12-15T14:29:37.381Z,30.90
2022-12-15T14:32:06.470Z,31.57
2022-12-15T14:34:37.132Z,30.90
2022-12-15T14:37:08.585Z,29.13
2022-12-15T14:39:40.000Z,44.97
2022-12-15T14:42:09.100Z,75.23
2022-12-15T14:44:39.445Z,49.40
2022-12-15T14:47:09.706Z,28.93
2022-12-15T14:49:40.781Z,27.23
2022-12-15T14:52:16.136Z,26.00
2022-12-15T14:54:53.657Z,26.00
2022-12-15T14:57:28.093Z,25.90
2022-12-15T14:59:56.661Z,28.63
2022-12-15T15:02:27.327Z,28.23
2022-12-15T15:04:57.806Z,26.73
2022-12-15T15:07:26.497Z,26.60
2022-12-15T15:09:56.414Z,27.33
2022-12-15T15:12:25.572Z,24.23
2022-12-15T15:14:54.947Z,38.20
2022-12-15T15:17:25.364Z,26.63
2022-12-15T15:19:55.177Z,26.97
2022-12-15T15:22:36.091Z,32.17
2022-12-15T15:25:26.191Z,30.70
2022-12-15T15:27:54.589Z,31.77
2022-12-15T15:30:23.581Z,45.83
2022-12-15T15:32:53.085Z,37.83
2022-12-15T15:35:21.620Z,42.33
2022-12-15T15:37:50.099Z,36.43
2022-12-15T15:40:19.947Z,53.30
2022-12-15T15:42:49.103Z,34.67
2022-12-15T15:45:17.689Z,33.97
2022-12-15T15:47:48.127Z,29.97
2022-12-15T15:50:17.863Z,32.27
2022-12-15T15:52:46.369Z,30.30
2022-12-15T15:55:15.987Z,26.37
2022-12-15T15:57:45.751Z,26.53
2022-12-15T16:00:19.301Z,29.20
2022-12-15T16:02:47.871Z,27.00
2022-12-15T16:05:16.842Z,25.27
2022-12-15T16:07:46.595Z,22.40
2022-12-15T16:10:16.181Z,21.00
2022-12-15T16:12:47.389Z,22.40
2022-12-15T16:15:17.080Z,25.13
2022-12-15T16:17:45.848Z,23.03
2022-12-15T16:20:15.006Z,21.93
2022-12-15T16:22:43.926Z,22.33
2022-12-15T16:25:15.520Z,23.50
2022-12-15T16:27:43.911Z,25.10
2022-12-15T16:30:24.515Z,25.57
2022-12-15T16:32:53.348Z,23.60
2022-12-15T16:35:25.783Z,28.57
2022-12-15T16:37:54.487Z,63.67
2022-12-15T16:40:24.119Z,35.90
2022-12-15T16:42:56.693Z,38.17
2022-12-15T16:45:27.237Z,49.43
2022-12-15T16:47:56.715Z,25.60
2022-12-15T16:50:27.436Z,21.77
2022-12-15T16:52:56.220Z,21.67
2022-12-15T16:55:25.938Z,21.40
2022-12-15T16:57:55.826Z,19.50
2022-12-15T17:00:26.953Z,20.63
2022-12-15T17:02:55.482Z,23.23
2022-12-15T17:05:24.161Z,24.17
2022-12-15T17:07:54.318Z,22.07
2022-12-15T17:10:24.033Z,20.60
2022-12-15T17:12:53.408Z,19.13
2022-12-15T17:15:23.014Z,22.77
2022-12-15T17:17:53.125Z,20.03
2022-12-15T17:20:29.373Z,18.47
2022-12-15T17:23:00.672Z,21.37
2022-12-15T17:26:09.395Z,19.60
2022-12-15T17:28:22.325Z,19.03
2022-12-15T17:30:51.529Z,18.07
2022-12-15T17:33:22.567Z,18.23
2022-12-15T17:35:52.363Z,16.93
2022-12-15T17:38:22.222Z,16.10
2022-12-15T17:40:51.721Z,15.53
2022-12-15T17:43:21.100Z,16.13
2022-12-15T17:45:50.876Z,16.27
2022-12-15T17:48:21.679Z,14.47
2022-12-15T17:50:52.508Z,15.90
2022-12-15T17:53:23.502Z,23.03
2022-12-15T17:55:52.558Z,21.90
2022-12-15T17:58:21.873Z,21.87
2022-12-15T18:00:51.839Z,20.87
2022-12-15T18:03:22.327Z,24.27
2022-12-15T18:05:52.243Z,30.60
2022-12-15T18:08:21.690Z,26.47
2022-12-15T18:10:51.718Z,28.20
2022-12-15T18:13:21.797Z,27.83
2022-12-15T18:15:50.466Z,24.03
2022-12-15T18:18:19.477Z,20.53
2022-12-15T18:20:49.619Z,21.43
2022-12-15T18:23:18.795Z,22.23
2022-12-15T18:25:47.203Z,30.57
2022-12-15T18:28:21.019Z,28.77
2022-12-15T18:30:49.732Z,17.80
2022-12-15T18:33:18.108Z,14.57
2022-12-15T18:35:47.314Z,15.63
2022-12-15T18:38:18.313Z,20.30
2022-12-15T18:40:47.698Z,16.03
2022-12-15T18:43:17.446Z,14.67
2022-12-15T18:45:45.902Z,15.13
2022-12-15T18:48:17.090Z,16.73
2022-12-15T18:50:45.768Z,15.30
2022-12-15T18:53:19.326Z,16.40
2022-12-15T18:55:48.519Z,17.20
2022-12-15T18:58:22.494Z,15.63
2022-12-15T19:00:51.108Z,32.30
2022-12-15T19:03:19.798Z,22.47
2022-12-15T19:05:48.549Z,17.70
2022-12-15T19:08:20.219Z,16.43
2022-12-15T19:10:51.455Z,17.70
2022-12-15T19:13:21.161Z,17.33
2022-12-15T19:15:49.607Z,18.70
2022-12-15T19:18:35.692Z,17.77
2022-12-15T19:21:30.761Z,17.53
2022-12-15T19:24:00.562Z,17.80
2022-12-15T19:26:29.019Z,16.90
2022-12-15T19:28:57.823Z,15.23
2022-12-15T19:31:26.257Z,17.87
2022-12-15T19:33:55.213Z,19.13
2022-12-15T19:36:24.648Z,19.70
2022-12-15T19:38:56.099Z,18.10
2022-12-15T19:41:25.932Z,18.57
2022-12-15T19:43:54.325Z,19.60
2022-12-15T19:46:23.900Z,17.03
2022-12-15T19:48:52.362Z,17.20
2022-12-15T19:51:23.113Z,15.67
2022-12-15T19:53:51.849Z,15.30
2022-12-15T19:56:21.802Z,16.30
2022-12-15T19:58:51.618Z,16.33
2022-12-15T20:01:21.627Z,15.83
2022-12-15T20:03:50.786Z,15.27
2022-12-15T20:06:20.539Z,15.20
2022-12-15T20:08:50.664Z,15.57
2022-12-15T20:11:20.387Z,15.87
2022-12-15T20:13:49.094Z,16.57
2022-12-15T20:16:19.241Z,15.53
2022-12-15T20:18:48.059Z,17.90
2022-12-15T20:21:22.068Z,18.23
2022-12-15T20:23:52.421Z,17.03
2022-12-15T20:26:21.477Z,17.40
2022-12-15T20:28:50.026Z,17.20
2022-12-15T20:31:20.725Z,16.33
2022-12-15T20:33:49.704Z,16.87
2022-12-15T20:36:19.928Z,16.00
2022-12-15T20:38:49.228Z,15.83
2022-12-15T20:41:18.902Z,14.90
2022-12-15T20:43:47.764Z,14.27
2022-12-15T20:46:17.899Z,13.23
2022-12-15T20:48:48.382Z,12.37
2022-12-15T20:51:24.201Z,11.80
2022-12-15T20:53:52.952Z,12.67
2022-12-15T20:56:24.304Z,10.97
2022-12-15T20:58:52.841Z,11.00
2022-12-15T21:01:22.451Z,9.60
2022-12-15T21:03:53.309Z,8.83
2022-12-15T21:06:21.867Z,8.37
2022-12-15T21:08:50.599Z,6.83
2022-12-15T21:11:20.741Z,7.60
2022-12-15T21:13:50.041Z,6.10
2022-12-15T21:16:19.672Z,4.40
2022-12-15T21:21:39.077Z,4.13
2022-12-15T21:24:14.617Z,3.87
2022-12-15T21:26:43.012Z,3.90
2022-12-15T21:29:13.598Z,3.73
2022-12-15T21:31:42.366Z,3.50
2022-12-15T21:34:11.060Z,3.80
2022-12-15T21:36:42.017Z,3.53
2022-12-15T21:39:11.748Z,3.77
2022-12-15T21:41:41.760Z,3.40
2022-12-15T21:44:13.107Z,3.00
2022-12-15T21:46:41.563Z,3.10
2022-12-15T21:49:17.475Z,3.50
2022-12-15T21:51:48.629Z,3.00
2022-12-15T21:54:19.301Z,3.47
2022-12-15T21:56:48.512Z,2.77
2022-12-15T21:59:17.822Z,3.33
2022-12-15T22:01:46.264Z,3.70
2022-12-15T22:04:18.695Z,2.97
2022-12-15T22:06:50.890Z,3.00
2022-12-15T22:09:19.588Z,3.13
2022-12-15T22:11:49.644Z,4.00
2022-12-15T22:14:21.715Z,3.00
2022-12-15T22:16:50.162Z,2.70
2022-12-15T22:19:18.696Z,3.00
2022-12-15T22:21:48.456Z,2.90
2022-12-15T22:24:17.067Z,2.87
2022-12-15T22:26:45.913Z,2.50
2022-12-15T22:29:15.633Z,2.73
2022-12-15T22:31:44.071Z,2.37
2022-12-15T22:34:16.261Z,2.90
2022-12-15T22:36:44.834Z,2.63
2022-12-15T22:39:15.210Z,2.80
2022-12-15T22:41:44.628Z,2.30
2022-12-15T22:44:17.389Z,2.10
2022-12-15T22:46:45.900Z,2.63
2022-12-15T22:49:15.864Z,2.50
2022-12-15T22:51:44.254Z,2.63
2022-12-15T22:54:21.762Z,2.57
2022-12-15T22:56:52.588Z,3.00
2022-12-15T22:59:22.833Z,2.40
2022-12-15T23:01:51.316Z,2.80
2022-12-15T23:04:20.141Z,2.97
2022-12-15T23:06:48.660Z,2.73
2022-12-15T23:09:17.041Z,2.80
2022-12-15T23:11:45.900Z,3.10
2022-12-15T23:14:15.581Z,3.07
2022-12-15T23:16:43.224Z,2.50
2022-12-15T23:19:23.629Z,2.80
2022-12-15T23:21:52.311Z,2.70
2022-12-15T23:24:20.730Z,2.80
2022-12-15T23:26:50.508Z,2.70
2022-12-15T23:29:19.061Z,2.40
2022-12-15T23:31:47.586Z,2.30
2022-12-15T23:34:16.035Z,2.90
2022-12-15T23:36:44.454Z,3.00
2022-12-15T23:39:12.833Z,3.67
2022-12-15T23:41:41.695Z,4.13
2022-12-15T23:44:12.326Z,4.47
2022-12-15T23:46:40.818Z,3.27
2022-12-15T23:49:09.776Z,3.20
2022-12-15T23:51:38.183Z,2.90
2022-12-15T23:54:06.589Z,2.63
2022-12-15T23:56:35.077Z,2.93
2022-12-15T23:59:03.487Z,2.20
